sensor_id;sensor_type;location;lat;lon;timestamp;P1;durP1;ratioP1;P2;durP2;ratioP2
17153;SDS011;8692;52.164;7.558;2023-10-09T00:00:06;2.87;;;1.30;;
17153;SDS011;8692;52.164;7.558;2023-10-09T00:03:02;2.60;;;1.53;;
17153;SDS011;8692;52.164;7.558;2023-10-09T00:05:34;2.03;;;1.30;;
17153;SDS011;8692;52.164;7.558;2023-10-09T00:08:12;1.83;;;1.20;;
17153;SDS011;8692;52.164;7.558;2023-10-09T00:10:46;2.33;;;1.50;;
17153;SDS011;8692;52.164;7.558;2023-10-09T00:13:19;3.20;;;1.40;;
17153;SDS011;8692;52.164;7.558;2023-10-09T00:15:54;2.90;;;1.30;;
17153;SDS011;8692;52.164;7.558;2023-10-09T00:18:26;1.93;;;1.37;;
17153;SDS011;8692;52.164;7.558;2023-10-09T00:20:58;3.10;;;1.40;;
17153;SDS011;8692;52.164;7.558;2023-10-09T00:23:38;2.37;;;1.10;;
17153;SDS011;8692;52.164;7.558;2023-10-09T00:26:06;2.83;;;1.50;;
17153;SDS011;8692;52.164;7.558;2023-10-09T00:28:47;3.07;;;1.67;;
17153;SDS011;8692;52.164;7.558;2023-10-09T00:31:17;3.40;;;1.70;;
17153;SDS011;8692;52.164;7.558;2023-10-09T00:33:56;2.37;;;1.50;;
17153;SDS011;8692;52.164;7.558;2023-10-09T00:36:35;3.30;;;1.70;;
17153;SDS011;8692;52.164;7.558;2023-10-09T00:39:17;1.93;;;1.30;;
17153;SDS011;8692;52.164;7.558;2023-10-09T00:42:07;3.67;;;1.30;;
17153;SDS011;8692;52.164;7.558;2023-10-09T00:44:38;2.17;;;1.67;;
17153;SDS011;8692;52.164;7.558;2023-10-09T00:47:08;2.63;;;1.23;;
17153;SDS011;8692;52.164;7.558;2023-10-09T00:49:49;2.30;;;1.40;;
17153;SDS011;8692;52.164;7.558;2023-10-09T00:52:25;3.63;;;1.50;;
17153;SDS011;8692;52.164;7.558;2023-10-09T00:55:05;2.43;;;1.33;;
17153;SDS011;8692;52.164;7.558;2023-10-09T00:57:41;2.37;;;1.57;;
17153;SDS011;8692;52.164;7.558;2023-10-09T01:00:17;2.80;;;1.80;;
17153;SDS011;8692;52.164;7.558;2023-10-09T01:02:59;3.77;;;2.10;;
17153;SDS011;8692;52.164;7.558;2023-10-09T01:05:46;3.73;;;2.30;;
17153;SDS011;8692;52.164;7.558;2023-10-09T01:08:20;2.00;;;1.43;;
17153;SDS011;8692;52.164;7.558;2023-10-09T01:10:55;3.37;;;1.90;;
17153;SDS011;8692;52.164;7.558;2023-10-09T01:13:25;5.97;;;2.20;;
17153;SDS011;8692;52.164;7.558;2023-10-09T01:16:05;3.30;;;2.07;;
17153;SDS011;8692;52.164;7.558;2023-10-09T01:18:35;2.97;;;1.90;;
17153;SDS011;8692;52.164;7.558;2023-10-09T01:21:07;2.57;;;2.00;;
17153;SDS011;8692;52.164;7.558;2023-10-09T01:23:41;3.83;;;1.90;;
17153;SDS011;8692;52.164;7.558;2023-10-09T01:26:29;3.07;;;2.00;;
17153;SDS011;8692;52.164;7.558;2023-10-09T01:29:01;3.07;;;2.00;;
17153;SDS011;8692;52.164;7.558;2023-10-09T01:31:36;3.73;;;2.33;;
17153;SDS011;8692;52.164;7.558;2023-10-09T01:34:10;4.30;;;2.37;;
17153;SDS011;8692;52.164;7.558;2023-10-09T01:36:40;5.57;;;2.43;;
17153;SDS011;8692;52.164;7.558;2023-10-09T01:39:10;2.93;;;2.00;;
17153;SDS011;8692;52.164;7.558;2023-10-09T01:41:49;5.03;;;2.47;;
17153;SDS011;8692;52.164;7.558;2023-10-09T01:44:24;4.50;;;2.50;;
17153;SDS011;8692;52.164;7.558;2023-10-09T01:46:54;4.40;;;2.60;;
17153;SDS011;8692;52.164;7.558;2023-10-09T01:49:24;4.23;;;2.20;;
17153;SDS011;8692;52.164;7.558;2023-10-09T01:51:58;3.20;;;2.00;;
17153;SDS011;8692;52.164;7.558;2023-10-09T01:54:34;3.90;;;2.60;;
17153;SDS011;8692;52.164;7.558;2023-10-09T01:57:04;3.57;;;2.47;;
17153;SDS011;8692;52.164;7.558;2023-10-09T01:59:36;3.67;;;2.50;;
17153;SDS011;8692;52.164;7.558;2023-10-09T02:02:10;3.70;;;2.50;;
17153;SDS011;8692;52.164;7.558;2023-10-09T02:04:58;2.60;;;2.37;;
17153;SDS011;8692;52.164;7.558;2023-10-09T02:07:52;4.53;;;2.63;;
17153;SDS011;8692;52.164;7.558;2023-10-09T02:10:22;3.27;;;2.50;;
17153;SDS011;8692;52.164;7.558;2023-10-09T02:12:58;4.40;;;2.87;;
17153;SDS011;8692;52.164;7.558;2023-10-09T02:15:33;4.60;;;3.20;;
17153;SDS011;8692;52.164;7.558;2023-10-09T02:18:19;3.47;;;2.40;;
17153;SDS011;8692;52.164;7.558;2023-10-09T02:21:06;4.20;;;2.50;;
17153;SDS011;8692;52.164;7.558;2023-10-09T02:23:41;3.50;;;2.30;;
17153;SDS011;8692;52.164;7.558;2023-10-09T02:26:15;3.80;;;2.77;;
17153;SDS011;8692;52.164;7.558;2023-10-09T02:28:46;3.77;;;2.60;;
17153;SDS011;8692;52.164;7.558;2023-10-09T02:31:26;2.90;;;2.43;;
17153;SDS011;8692;52.164;7.558;2023-10-09T02:34:03;4.10;;;2.93;;
17153;SDS011;8692;52.164;7.558;2023-10-09T02:36:32;8.60;;;4.67;;
17153;SDS011;8692;52.164;7.558;2023-10-09T02:39:05;6.97;;;4.33;;
17153;SDS011;8692;52.164;7.558;2023-10-09T02:41:35;5.10;;;3.60;;
17153;SDS011;8692;52.164;7.558;2023-10-09T02:44:11;7.13;;;3.97;;
17153;SDS011;8692;52.164;7.558;2023-10-09T02:46:40;4.37;;;3.13;;
17153;SDS011;8692;52.164;7.558;2023-10-09T02:49:11;4.67;;;3.20;;
17153;SDS011;8692;52.164;7.558;2023-10-09T02:51:42;6.17;;;4.00;;
17153;SDS011;8692;52.164;7.558;2023-10-09T02:54:14;5.63;;;3.17;;
17153;SDS011;8692;52.164;7.558;2023-10-09T02:56:55;5.57;;;3.23;;
17153;SDS011;8692;52.164;7.558;2023-10-09T02:59:32;4.03;;;3.13;;
17153;SDS011;8692;52.164;7.558;2023-10-09T03:02:01;5.30;;;3.37;;
17153;SDS011;8692;52.164;7.558;2023-10-09T03:04:28;5.50;;;4.60;;
17153;SDS011;8692;52.164;7.558;2023-10-09T03:06:57;6.70;;;4.47;;
17153;SDS011;8692;52.164;7.558;2023-10-09T03:09:25;6.70;;;4.80;;
17153;SDS011;8692;52.164;7.558;2023-10-09T03:11:57;6.20;;;4.70;;
17153;SDS011;8692;52.164;7.558;2023-10-09T03:14:29;11.47;;;5.47;;
17153;SDS011;8692;52.164;7.558;2023-10-09T03:16:58;8.50;;;4.93;;
17153;SDS011;8692;52.164;7.558;2023-10-09T03:19:27;6.40;;;4.33;;
17153;SDS011;8692;52.164;7.558;2023-10-09T03:21:56;7.03;;;4.90;;
17153;SDS011;8692;52.164;7.558;2023-10-09T03:24:25;6.07;;;3.90;;
17153;SDS011;8692;52.164;7.558;2023-10-09T03:26:54;7.07;;;4.73;;
17153;SDS011;8692;52.164;7.558;2023-10-09T03:29:24;5.03;;;3.90;;
17153;SDS011;8692;52.164;7.558;2023-10-09T03:31:54;6.00;;;4.90;;
17153;SDS011;8692;52.164;7.558;2023-10-09T03:34:23;5.87;;;4.57;;
17153;SDS011;8692;52.164;7.558;2023-10-09T03:36:51;6.33;;;4.33;;
17153;SDS011;8692;52.164;7.558;2023-10-09T03:39:30;6.67;;;4.77;;
17153;SDS011;8692;52.164;7.558;2023-10-09T03:42:05;4.97;;;4.47;;
17153;SDS011;8692;52.164;7.558;2023-10-09T03:44:39;8.23;;;4.37;;
17153;SDS011;8692;52.164;7.558;2023-10-09T03:47:10;7.93;;;4.87;;
17153;SDS011;8692;52.164;7.558;2023-10-09T03:49:43;5.30;;;4.80;;
17153;SDS011;8692;52.164;7.558;2023-10-09T03:52:11;6.97;;;5.03;;
17153;SDS011;8692;52.164;7.558;2023-10-09T03:54:43;4.97;;;4.47;;
17153;SDS011;8692;52.164;7.558;2023-10-09T03:57:12;6.57;;;4.97;;
17153;SDS011;8692;52.164;7.558;2023-10-09T03:59:46;5.93;;;4.63;;
17153;SDS011;8692;52.164;7.558;2023-10-09T04:02:14;6.40;;;5.10;;
17153;SDS011;8692;52.164;7.558;2023-10-09T04:04:43;5.27;;;4.77;;
17153;SDS011;8692;52.164;7.558;2023-10-09T04:07:14;7.10;;;4.87;;
17153;SDS011;8692;52.164;7.558;2023-10-09T04:09:43;5.97;;;4.63;;
17153;SDS011;8692;52.164;7.558;2023-10-09T04:12:14;6.43;;;5.30;;
17153;SDS011;8692;52.164;7.558;2023-10-09T04:14:53;5.80;;;4.77;;
17153;SDS011;8692;52.164;7.558;2023-10-09T04:17:24;6.33;;;5.20;;
17153;SDS011;8692;52.164;7.558;2023-10-09T04:20:02;5.57;;;3.77;;
17153;SDS011;8692;52.164;7.558;2023-10-09T04:23:01;5.80;;;4.87;;
17153;SDS011;8692;52.164;7.558;2023-10-09T04:25:32;7.00;;;4.97;;
17153;SDS011;8692;52.164;7.558;2023-10-09T04:28:10;6.23;;;5.20;;
17153;SDS011;8692;52.164;7.558;2023-10-09T04:30:47;5.93;;;5.07;;
17153;SDS011;8692;52.164;7.558;2023-10-09T04:33:22;7.27;;;5.20;;
17153;SDS011;8692;52.164;7.558;2023-10-09T04:36:07;7.87;;;4.27;;
17153;SDS011;8692;52.164;7.558;2023-10-09T04:38:43;6.70;;;4.90;;
17153;SDS011;8692;52.164;7.558;2023-10-09T04:41:22;7.77;;;5.30;;
17153;SDS011;8692;52.164;7.558;2023-10-09T04:44:00;7.00;;;6.17;;
17153;SDS011;8692;52.164;7.558;2023-10-09T04:46:47;6.57;;;4.93;;
17153;SDS011;8692;52.164;7.558;2023-10-09T04:49:30;5.87;;;4.60;;
17153;SDS011;8692;52.164;7.558;2023-10-09T04:52:12;6.90;;;5.27;;
17153;SDS011;8692;52.164;7.558;2023-10-09T04:54:46;8.77;;;5.30;;
17153;SDS011;8692;52.164;7.558;2023-10-09T04:57:28;5.87;;;5.00;;
17153;SDS011;8692;52.164;7.558;2023-10-09T04:59:57;6.77;;;5.47;;
17153;SDS011;8692;52.164;7.558;2023-10-09T05:02:27;7.13;;;5.27;;
17153;SDS011;8692;52.164;7.558;2023-10-09T05:05:03;6.33;;;5.70;;
17153;SDS011;8692;52.164;7.558;2023-10-09T05:08:03;7.97;;;5.17;;
17153;SDS011;8692;52.164;7.558;2023-10-09T05:10:45;7.53;;;6.20;;
17153;SDS011;8692;52.164;7.558;2023-10-09T05:13:32;8.97;;;7.03;;
17153;SDS011;8692;52.164;7.558;2023-10-09T05:16:10;8.57;;;6.70;;
17153;SDS011;8692;52.164;7.558;2023-10-09T05:18:46;10.03;;;7.57;;
17153;SDS011;8692;52.164;7.558;2023-10-09T05:21:24;10.70;;;7.27;;
17153;SDS011;8692;52.164;7.558;2023-10-09T05:24:11;9.13;;;6.50;;
17153;SDS011;8692;52.164;7.558;2023-10-09T05:26:49;8.17;;;6.07;;
17153;SDS011;8692;52.164;7.558;2023-10-09T05:29:18;12.27;;;7.63;;
17153;SDS011;8692;52.164;7.558;2023-10-09T05:32:02;8.90;;;6.67;;
17153;SDS011;8692;52.164;7.558;2023-10-09T05:34:33;9.40;;;7.27;;
17153;SDS011;8692;52.164;7.558;2023-10-09T05:37:22;7.27;;;6.20;;
17153;SDS011;8692;52.164;7.558;2023-10-09T05:39:51;7.63;;;5.80;;
17153;SDS011;8692;52.164;7.558;2023-10-09T05:42:45;8.80;;;7.07;;
17153;SDS011;8692;52.164;7.558;2023-10-09T05:45:24;7.70;;;6.37;;
17153;SDS011;8692;52.164;7.558;2023-10-09T05:48:11;7.33;;;6.33;;
17153;SDS011;8692;52.164;7.558;2023-10-09T05:50:55;7.90;;;6.57;;
17153;SDS011;8692;52.164;7.558;2023-10-09T05:53:38;11.13;;;8.30;;
17153;SDS011;8692;52.164;7.558;2023-10-09T05:56:24;11.43;;;9.17;;
17153;SDS011;8692;52.164;7.558;2023-10-09T05:59:10;17.47;;;11.27;;
17153;SDS011;8692;52.164;7.558;2023-10-09T06:01:55;18.53;;;12.73;;
17153;SDS011;8692;52.164;7.558;2023-10-09T06:04:41;17.67;;;12.67;;
17153;SDS011;8692;52.164;7.558;2023-10-09T06:07:22;27.67;;;16.90;;
17153;SDS011;8692;52.164;7.558;2023-10-09T06:10:07;22.20;;;15.33;;
17153;SDS011;8692;52.164;7.558;2023-10-09T06:12:45;24.77;;;18.73;;
17153;SDS011;8692;52.164;7.558;2023-10-09T06:15:35;20.80;;;15.47;;
17153;SDS011;8692;52.164;7.558;2023-10-09T06:18:17;26.33;;;21.90;;
17153;SDS011;8692;52.164;7.558;2023-10-09T06:20:59;22.90;;;17.20;;
17153;SDS011;8692;52.164;7.558;2023-10-09T06:23:37;19.30;;;15.87;;
17153;SDS011;8692;52.164;7.558;2023-10-09T06:26:35;24.50;;;18.30;;
17153;SDS011;8692;52.164;7.558;2023-10-09T06:29:03;26.87;;;21.90;;
17153;SDS011;8692;52.164;7.558;2023-10-09T06:32:00;28.47;;;21.10;;
17153;SDS011;8692;52.164;7.558;2023-10-09T06:34:42;24.37;;;17.27;;
17153;SDS011;8692;52.164;7.558;2023-10-09T06:37:12;23.17;;;18.37;;
17153;SDS011;8692;52.164;7.558;2023-10-09T06:40:02;27.90;;;22.83;;
17153;SDS011;8692;52.164;7.558;2023-10-09T06:42:49;29.07;;;20.93;;
17153;SDS011;8692;52.164;7.558;2023-10-09T06:45:19;26.40;;;20.43;;
17153;SDS011;8692;52.164;7.558;2023-10-09T06:47:50;31.70;;;21.43;;
17153;SDS011;8692;52.164;7.558;2023-10-09T06:50:23;23.80;;;18.83;;
17153;SDS011;8692;52.164;7.558;2023-10-09T06:53:14;24.83;;;19.80;;
17153;SDS011;8692;52.164;7.558;2023-10-09T06:55:53;22.67;;;18.80;;
17153;SDS011;8692;52.164;7.558;2023-10-09T06:58:32;25.00;;;20.03;;
17153;SDS011;8692;52.164;7.558;2023-10-09T07:01:08;26.20;;;20.70;;
17153;SDS011;8692;52.164;7.558;2023-10-09T07:04:06;26.57;;;19.47;;
17153;SDS011;8692;52.164;7.558;2023-10-09T07:06:46;26.03;;;18.47;;
17153;SDS011;8692;52.164;7.558;2023-10-09T07:09:17;30.63;;;21.00;;
17153;SDS011;8692;52.164;7.558;2023-10-09T07:11:49;32.07;;;22.57;;
17153;SDS011;8692;52.164;7.558;2023-10-09T07:14:30;29.30;;;23.00;;
17153;SDS011;8692;52.164;7.558;2023-10-09T07:17:16;32.53;;;24.90;;
17153;SDS011;8692;52.164;7.558;2023-10-09T07:19:50;29.87;;;23.83;;
17153;SDS011;8692;52.164;7.558;2023-10-09T07:22:37;26.23;;;20.23;;
17153;SDS011;8692;52.164;7.558;2023-10-09T07:25:20;26.50;;;21.27;;
17153;SDS011;8692;52.164;7.558;2023-10-09T07:28:08;30.83;;;23.27;;
17153;SDS011;8692;52.164;7.558;2023-10-09T07:30:56;27.67;;;21.93;;
17153;SDS011;8692;52.164;7.558;2023-10-09T07:33:26;25.37;;;19.83;;
17153;SDS011;8692;52.164;7.558;2023-10-09T07:36:31;24.50;;;19.03;;
17153;SDS011;8692;52.164;7.558;2023-10-09T07:39:04;32.63;;;23.17;;
17153;SDS011;8692;52.164;7.558;2023-10-09T07:41:43;30.20;;;23.07;;
17153;SDS011;8692;52.164;7.558;2023-10-09T07:44:28;27.47;;;22.17;;
17153;SDS011;8692;52.164;7.558;2023-10-09T07:47:03;25.77;;;20.27;;
17153;SDS011;8692;52.164;7.558;2023-10-09T07:49:44;26.87;;;20.57;;
17153;SDS011;8692;52.164;7.558;2023-10-09T07:52:20;25.17;;;20.90;;
17153;SDS011;8692;52.164;7.558;2023-10-09T07:54:52;24.80;;;20.17;;
17153;SDS011;8692;52.164;7.558;2023-10-09T07:57:28;25.57;;;19.80;;
17153;SDS011;8692;52.164;7.558;2023-10-09T08:00:05;28.13;;;21.23;;
17153;SDS011;8692;52.164;7.558;2023-10-09T08:03:02;28.00;;;21.73;;
17153;SDS011;8692;52.164;7.558;2023-10-09T08:05:50;23.30;;;20.67;;
17153;SDS011;8692;52.164;7.558;2023-10-09T08:08:21;26.13;;;19.70;;
17153;SDS011;8692;52.164;7.558;2023-10-09T08:11:22;27.90;;;23.03;;
17153;SDS011;8692;52.164;7.558;2023-10-09T08:14:09;29.07;;;23.67;;
17153;SDS011;8692;52.164;7.558;2023-10-09T08:16:57;27.20;;;22.87;;
17153;SDS011;8692;52.164;7.558;2023-10-09T08:19:38;25.07;;;21.23;;
17153;SDS011;8692;52.164;7.558;2023-10-09T08:22:23;27.17;;;20.67;;
17153;SDS011;8692;52.164;7.558;2023-10-09T08:25:11;19.47;;;17.23;;
17153;SDS011;8692;52.164;7.558;2023-10-09T08:28:06;30.30;;;21.40;;
17153;SDS011;8692;52.164;7.558;2023-10-09T08:30:51;25.83;;;20.47;;
17153;SDS011;8692;52.164;7.558;2023-10-09T08:33:30;29.50;;;22.00;;
17153;SDS011;8692;52.164;7.558;2023-10-09T08:36:10;28.00;;;22.20;;
17153;SDS011;8692;52.164;7.558;2023-10-09T08:38:41;29.90;;;23.30;;
17153;SDS011;8692;52.164;7.558;2023-10-09T08:41:10;26.80;;;22.33;;
17153;SDS011;8692;52.164;7.558;2023-10-09T08:43:49;31.50;;;27.03;;
17153;SDS011;8692;52.164;7.558;2023-10-09T08:46:19;30.30;;;24.80;;
17153;SDS011;8692;52.164;7.558;2023-10-09T08:48:48;28.67;;;24.57;;
17153;SDS011;8692;52.164;7.558;2023-10-09T08:51:17;26.33;;;23.23;;
17153;SDS011;8692;52.164;7.558;2023-10-09T08:53:46;31.77;;;22.63;;
17153;SDS011;8692;52.164;7.558;2023-10-09T08:56:15;31.83;;;22.47;;
17153;SDS011;8692;52.164;7.558;2023-10-09T08:58:53;29.33;;;23.07;;
17153;SDS011;8692;52.164;7.558;2023-10-09T09:01:23;26.73;;;22.30;;
17153;SDS011;8692;52.164;7.558;2023-10-09T09:03:53;31.10;;;23.33;;
17153;SDS011;8692;52.164;7.558;2023-10-09T09:06:23;27.40;;;22.90;;
17153;SDS011;8692;52.164;7.558;2023-10-09T09:08:51;30.70;;;21.63;;
17153;SDS011;8692;52.164;7.558;2023-10-09T09:11:26;27.10;;;21.50;;
17153;SDS011;8692;52.164;7.558;2023-10-09T09:14:04;26.33;;;21.40;;
17153;SDS011;8692;52.164;7.558;2023-10-09T09:16:34;23.63;;;20.17;;
17153;SDS011;8692;52.164;7.558;2023-10-09T09:19:04;23.00;;;20.13;;
17153;SDS011;8692;52.164;7.558;2023-10-09T09:21:47;25.90;;;20.90;;
17153;SDS011;8692;52.164;7.558;2023-10-09T09:24:21;27.10;;;21.33;;
17153;SDS011;8692;52.164;7.558;2023-10-09T09:27:00;25.93;;;21.20;;
17153;SDS011;8692;52.164;7.558;2023-10-09T09:29:41;26.60;;;20.10;;
17153;SDS011;8692;52.164;7.558;2023-10-09T09:32:26;25.73;;;21.17;;
17153;SDS011;8692;52.164;7.558;2023-10-09T09:35:02;28.60;;;22.50;;
17153;SDS011;8692;52.164;7.558;2023-10-09T09:37:33;29.00;;;21.80;;
17153;SDS011;8692;52.164;7.558;2023-10-09T09:40:17;26.07;;;21.73;;
17153;SDS011;8692;52.164;7.558;2023-10-09T09:43:00;25.27;;;20.70;;
17153;SDS011;8692;52.164;7.558;2023-10-09T09:45:33;23.77;;;20.40;;
17153;SDS011;8692;52.164;7.558;2023-10-09T09:48:02;23.87;;;18.10;;
17153;SDS011;8692;52.164;7.558;2023-10-09T09:50:33;23.23;;;20.33;;
17153;SDS011;8692;52.164;7.558;2023-10-09T09:53:09;25.53;;;19.03;;
17153;SDS011;8692;52.164;7.558;2023-10-09T09:55:44;22.50;;;19.40;;
17153;SDS011;8692;52.164;7.558;2023-10-09T09:58:23;24.37;;;18.60;;
17153;SDS011;8692;52.164;7.558;2023-10-09T10:00:56;26.40;;;20.50;;
17153;SDS011;8692;52.164;7.558;2023-10-09T10:03:36;20.77;;;17.50;;
17153;SDS011;8692;52.164;7.558;2023-10-09T10:06:10;21.03;;;17.97;;
17153;SDS011;8692;52.164;7.558;2023-10-09T10:08:40;23.43;;;18.87;;
17153;SDS011;8692;52.164;7.558;2023-10-09T10:11:10;21.20;;;18.50;;
17153;SDS011;8692;52.164;7.558;2023-10-09T10:14:18;22.77;;;18.00;;
17153;SDS011;8692;52.164;7.558;2023-10-09T10:17:03;19.93;;;17.67;;
17153;SDS011;8692;52.164;7.558;2023-10-09T10:19:59;22.90;;;17.83;;
17153;SDS011;8692;52.164;7.558;2023-10-09T10:22:49;24.83;;;19.00;;
17153;SDS011;8692;52.164;7.558;2023-10-09T10:25:33;25.73;;;19.80;;
17153;SDS011;8692;52.164;7.558;2023-10-09T10:28:17;23.47;;;19.50;;
17153;SDS011;8692;52.164;7.558;2023-10-09T10:30:55;23.30;;;18.53;;
17153;SDS011;8692;52.164;7.558;2023-10-09T10:33:28;23.53;;;19.10;;
17153;SDS011;8692;52.164;7.558;2023-10-09T10:36:33;24.17;;;19.20;;
17153;SDS011;8692;52.164;7.558;2023-10-09T10:39:02;24.63;;;18.87;;
17153;SDS011;8692;52.164;7.558;2023-10-09T10:41:34;33.53;;;19.57;;
17153;SDS011;8692;52.164;7.558;2023-10-09T10:44:24;23.40;;;18.87;;
17153;SDS011;8692;52.164;7.558;2023-10-09T10:47:03;21.63;;;19.33;;
17153;SDS011;8692;52.164;7.558;2023-10-09T10:49:46;23.27;;;19.33;;
17153;SDS011;8692;52.164;7.558;2023-10-09T10:52:21;20.57;;;18.37;;
17153;SDS011;8692;52.164;7.558;2023-10-09T10:55:11;23.60;;;20.73;;
17153;SDS011;8692;52.164;7.558;2023-10-09T10:58:14;22.23;;;18.67;;
17153;SDS011;8692;52.164;7.558;2023-10-09T11:00:53;25.57;;;19.77;;
17153;SDS011;8692;52.164;7.558;2023-10-09T11:03:40;21.60;;;19.27;;
17153;SDS011;8692;52.164;7.558;2023-10-09T11:06:26;23.17;;;19.33;;
17153;SDS011;8692;52.164;7.558;2023-10-09T11:09:04;25.17;;;18.83;;
17153;SDS011;8692;52.164;7.558;2023-10-09T11:11:48;21.93;;;17.80;;
17153;SDS011;8692;52.164;7.558;2023-10-09T11:14:16;21.63;;;18.77;;
17153;SDS011;8692;52.164;7.558;2023-10-09T11:16:50;26.57;;;19.37;;
17153;SDS011;8692;52.164;7.558;2023-10-09T11:19:24;20.03;;;17.53;;
17153;SDS011;8692;52.164;7.558;2023-10-09T11:22:07;27.60;;;19.20;;
17153;SDS011;8692;52.164;7.558;2023-10-09T11:24:54;21.73;;;17.93;;
17153;SDS011;8692;52.164;7.558;2023-10-09T11:27:40;21.67;;;17.10;;
17153;SDS011;8692;52.164;7.558;2023-10-09T11:30:17;20.93;;;17.40;;
17153;SDS011;8692;52.164;7.558;2023-10-09T11:33:05;22.13;;;16.70;;
17153;SDS011;8692;52.164;7.558;2023-10-09T11:35:33;21.30;;;17.03;;
17153;SDS011;8692;52.164;7.558;2023-10-09T11:38:03;21.70;;;16.40;;
17153;SDS011;8692;52.164;7.558;2023-10-09T11:40:47;19.10;;;17.03;;
17153;SDS011;8692;52.164;7.558;2023-10-09T11:43:48;21.03;;;17.10;;
17153;SDS011;8692;52.164;7.558;2023-10-09T11:46:21;20.17;;;16.57;;
17153;SDS011;8692;52.164;7.558;2023-10-09T11:49:15;19.53;;;15.67;;
17153;SDS011;8692;52.164;7.558;2023-10-09T11:51:53;20.90;;;16.87;;
17153;SDS011;8692;52.164;7.558;2023-10-09T11:54:51;20.77;;;15.77;;
17153;SDS011;8692;52.164;7.558;2023-10-09T11:57:23;21.47;;;16.57;;
17153;SDS011;8692;52.164;7.558;2023-10-09T11:59:57;21.70;;;15.27;;
17153;SDS011;8692;52.164;7.558;2023-10-09T12:02:26;19.07;;;15.63;;
17153;SDS011;8692;52.164;7.558;2023-10-09T12:04:56;19.67;;;15.60;;
17153;SDS011;8692;52.164;7.558;2023-10-09T12:07:25;21.50;;;15.17;;
17153;SDS011;8692;52.164;7.558;2023-10-09T12:09:58;18.03;;;15.00;;
17153;SDS011;8692;52.164;7.558;2023-10-09T12:12:29;18.50;;;14.60;;
17153;SDS011;8692;52.164;7.558;2023-10-09T12:14:59;20.83;;;14.13;;
17153;SDS011;8692;52.164;7.558;2023-10-09T12:17:31;17.07;;;12.73;;
17153;SDS011;8692;52.164;7.558;2023-10-09T12:19:59;21.27;;;14.33;;
17153;SDS011;8692;52.164;7.558;2023-10-09T12:22:30;15.03;;;12.33;;
17153;SDS011;8692;52.164;7.558;2023-10-09T12:25:00;20.20;;;14.23;;
17153;SDS011;8692;52.164;7.558;2023-10-09T12:27:35;17.70;;;12.20;;
17153;SDS011;8692;52.164;7.558;2023-10-09T12:30:04;17.63;;;12.63;;
17153;SDS011;8692;52.164;7.558;2023-10-09T12:32:33;16.27;;;13.00;;
17153;SDS011;8692;52.164;7.558;2023-10-09T12:35:02;18.03;;;12.40;;
17153;SDS011;8692;52.164;7.558;2023-10-09T12:37:43;14.23;;;11.73;;
17153;SDS011;8692;52.164;7.558;2023-10-09T12:40:13;16.10;;;12.43;;
17153;SDS011;8692;52.164;7.558;2023-10-09T12:42:51;18.27;;;11.83;;
17153;SDS011;8692;52.164;7.558;2023-10-09T12:45:20;18.70;;;11.47;;
17153;SDS011;8692;52.164;7.558;2023-10-09T12:47:53;18.00;;;11.43;;
17153;SDS011;8692;52.164;7.558;2023-10-09T12:50:25;18.63;;;11.90;;
17153;SDS011;8692;52.164;7.558;2023-10-09T12:53:00;19.37;;;11.80;;
17153;SDS011;8692;52.164;7.558;2023-10-09T12:55:35;17.13;;;11.70;;
17153;SDS011;8692;52.164;7.558;2023-10-09T12:58:07;12.17;;;10.37;;
17153;SDS011;8692;52.164;7.558;2023-10-09T13:00:36;14.33;;;10.70;;
17153;SDS011;8692;52.164;7.558;2023-10-09T13:03:08;18.97;;;10.73;;
17153;SDS011;8692;52.164;7.558;2023-10-09T13:05:46;21.33;;;10.97;;
17153;SDS011;8692;52.164;7.558;2023-10-09T13:08:22;13.57;;;9.83;;
17153;SDS011;8692;52.164;7.558;2023-10-09T13:11:02;14.37;;;10.70;;
17153;SDS011;8692;52.164;7.558;2023-10-09T13:13:38;14.57;;;9.77;;
17153;SDS011;8692;52.164;7.558;2023-10-09T13:16:08;14.60;;;9.80;;
17153;SDS011;8692;52.164;7.558;2023-10-09T13:18:40;13.30;;;9.50;;
17153;SDS011;8692;52.164;7.558;2023-10-09T13:21:17;15.90;;;9.53;;
17153;SDS011;8692;52.164;7.558;2023-10-09T13:23:46;22.23;;;11.00;;
17153;SDS011;8692;52.164;7.558;2023-10-09T13:26:17;15.27;;;10.07;;
17153;SDS011;8692;52.164;7.558;2023-10-09T13:28:58;13.20;;;9.63;;
17153;SDS011;8692;52.164;7.558;2023-10-09T13:31:28;14.07;;;9.43;;
17153;SDS011;8692;52.164;7.558;2023-10-09T13:33:58;16.73;;;10.80;;
17153;SDS011;8692;52.164;7.558;2023-10-09T13:36:28;14.27;;;9.00;;
17153;SDS011;8692;52.164;7.558;2023-10-09T13:38:59;14.37;;;9.70;;
17153;SDS011;8692;52.164;7.558;2023-10-09T13:41:48;14.57;;;8.80;;
17153;SDS011;8692;52.164;7.558;2023-10-09T13:44:19;14.17;;;9.23;;
17153;SDS011;8692;52.164;7.558;2023-10-09T13:46:47;13.40;;;7.87;;
17153;SDS011;8692;52.164;7.558;2023-10-09T13:49:17;10.30;;;7.87;;
17153;SDS011;8692;52.164;7.558;2023-10-09T13:51:49;9.97;;;7.37;;
17153;SDS011;8692;52.164;7.558;2023-10-09T13:54:17;14.20;;;8.67;;
17153;SDS011;8692;52.164;7.558;2023-10-09T13:56:56;15.03;;;9.77;;
17153;SDS011;8692;52.164;7.558;2023-10-09T13:59:24;12.83;;;8.07;;
17153;SDS011;8692;52.164;7.558;2023-10-09T14:01:52;12.30;;;8.33;;
17153;SDS011;8692;52.164;7.558;2023-10-09T14:04:21;13.57;;;8.57;;
17153;SDS011;8692;52.164;7.558;2023-10-09T14:06:50;10.03;;;8.00;;
17153;SDS011;8692;52.164;7.558;2023-10-09T14:09:23;12.53;;;8.40;;
17153;SDS011;8692;52.164;7.558;2023-10-09T14:12:00;14.20;;;7.93;;
17153;SDS011;8692;52.164;7.558;2023-10-09T14:14:34;12.53;;;7.67;;
17153;SDS011;8692;52.164;7.558;2023-10-09T14:17:05;14.53;;;7.83;;
17153;SDS011;8692;52.164;7.558;2023-10-09T14:19:38;13.03;;;7.67;;
17153;SDS011;8692;52.164;7.558;2023-10-09T14:22:13;12.07;;;7.70;;
17153;SDS011;8692;52.164;7.558;2023-10-09T14:24:42;9.73;;;7.43;;
17153;SDS011;8692;52.164;7.558;2023-10-09T14:27:12;14.17;;;7.73;;
17153;SDS011;8692;52.164;7.558;2023-10-09T14:29:44;11.77;;;7.57;;
17153;SDS011;8692;52.164;7.558;2023-10-09T14:32:12;12.40;;;7.87;;
17153;SDS011;8692;52.164;7.558;2023-10-09T14:34:41;10.40;;;7.60;;
17153;SDS011;8692;52.164;7.558;2023-10-09T14:37:13;16.53;;;7.30;;
17153;SDS011;8692;52.164;7.558;2023-10-09T14:39:41;12.43;;;7.70;;
17153;SDS011;8692;52.164;7.558;2023-10-09T14:42:15;14.10;;;8.40;;
17153;SDS011;8692;52.164;7.558;2023-10-09T14:44:44;14.87;;;7.80;;
17153;SDS011;8692;52.164;7.558;2023-10-09T14:47:12;12.37;;;7.60;;
17153;SDS011;8692;52.164;7.558;2023-10-09T14:49:41;14.07;;;8.67;;
17153;SDS011;8692;52.164;7.558;2023-10-09T14:52:13;11.83;;;7.30;;
17153;SDS011;8692;52.164;7.558;2023-10-09T14:54:43;10.33;;;6.87;;
17153;SDS011;8692;52.164;7.558;2023-10-09T14:57:11;10.60;;;6.53;;
17153;SDS011;8692;52.164;7.558;2023-10-09T14:59:40;11.40;;;6.80;;
17153;SDS011;8692;52.164;7.558;2023-10-09T15:02:10;11.37;;;7.50;;
17153;SDS011;8692;52.164;7.558;2023-10-09T15:04:39;8.90;;;5.93;;
17153;SDS011;8692;52.164;7.558;2023-10-09T15:07:07;10.07;;;6.33;;
17153;SDS011;8692;52.164;7.558;2023-10-09T15:09:35;10.60;;;6.90;;
17153;SDS011;8692;52.164;7.558;2023-10-09T15:12:06;9.57;;;6.77;;
17153;SDS011;8692;52.164;7.558;2023-10-09T15:14:35;11.00;;;6.13;;
17153;SDS011;8692;52.164;7.558;2023-10-09T15:17:05;10.90;;;5.77;;
17153;SDS011;8692;52.164;7.558;2023-10-09T15:19:33;13.30;;;6.90;;
17153;SDS011;8692;52.164;7.558;2023-10-09T15:22:01;11.87;;;6.53;;
17153;SDS011;8692;52.164;7.558;2023-10-09T15:24:34;7.73;;;5.37;;
17153;SDS011;8692;52.164;7.558;2023-10-09T15:27:02;9.03;;;6.30;;
17153;SDS011;8692;52.164;7.558;2023-10-09T15:29:33;10.80;;;6.20;;
17153;SDS011;8692;52.164;7.558;2023-10-09T15:32:05;10.00;;;5.67;;
17153;SDS011;8692;52.164;7.558;2023-10-09T15:34:41;7.20;;;5.07;;
17153;SDS011;8692;52.164;7.558;2023-10-09T15:37:10;12.57;;;5.67;;
17153;SDS011;8692;52.164;7.558;2023-10-09T15:39:39;10.17;;;6.23;;